Time Latitude Longitude Accuracy (66% radius in meters) Altitude (meters) Speed (km/hour) Bearing (degrees) Battery (%) GPS flag
15:49:56 3.554673 -76.197565 0 0 0 0 1 delete
15:49:17 3.554702 -76.197597 0 0 0 0 1 delete
15:48:54 3.554728 -76.197625 0 0 0 0 1 delete
15:48:48 3.554763 -76.197635 0 0 0 0 1 delete
15:48:43 3.554793 -76.197630 0 0 0 0 1 delete
15:48:41 3.554827 -76.197615 0 0 0 0 1 delete
15:48:40 3.554862 -76.197600 0 0 0 0 1 delete
15:48:39 3.554902 -76.197587 0 0 0 0 1 delete
15:48:38 3.554942 -76.197580 0 0 0 0 1 delete
15:48:37 3.554987 -76.197565 0 0 0 0 1 delete
15:48:36 3.555033 -76.197543 0 0 0 0 1 delete
15:48:35 3.555075 -76.197523 0 0 0 0 1 delete
15:48:34 3.555117 -76.197500 0 0 0 0 1 delete
15:48:33 3.555157 -76.197482 0 0 0 0 1 delete
15:48:32 3.555195 -76.197460 0 0 0 0 1 delete
15:48:31 3.555238 -76.197442 0 0 0 0 1 delete
15:48:30 3.555277 -76.197418 0 0 0 0 1 delete
15:48:29 3.555318 -76.197393 0 0 0 0 1 delete
15:48:28 3.555363 -76.197363 0 0 0 0 1 delete
15:48:27 3.555408 -76.197332 0 0 0 0 1 delete
15:48:26 3.555457 -76.197305 0 0 0 0 1 delete
15:48:25 3.555503 -76.197278 0 0 0 0 1 delete
15:48:24 3.555553 -76.197255 0 0 0 0 1 delete
15:48:23 3.555598 -76.197227 0 0 0 0 1 delete
15:48:22 3.555638 -76.197202 0 0 0 0 1 delete
15:48:21 3.555685 -76.197175 0 0 0 0 1 delete
15:48:20 3.555735 -76.197158 0 0 0 0 1 delete
15:48:19 3.555782 -76.197143 0 0 0 0 1 delete
15:48:18 3.555827 -76.197132 0 0 0 0 1 delete
15:48:17 3.555875 -76.197128 0 0 0 0 1 delete
15:48:16 3.555922 -76.197123 0 0 0 0 1 delete
15:48:15 3.555973 -76.197130 0 0 0 0 1 delete
15:48:14 3.556018 -76.197138 0 0 0 0 1 delete
15:48:13 3.556065 -76.197150 0 0 0 0 1 delete
15:48:12 3.556108 -76.197168 0 0 0 0 1 delete
15:48:11 3.556157 -76.197192 0 0 0 0 1 delete
15:48:10 3.556197 -76.197217 0 0 0 0 1 delete
15:48:09 3.556237 -76.197242 0 0 0 0 1 delete
15:48:08 3.556270 -76.197270 0 0 0 0 1 delete
15:48:07 3.556300 -76.197298 0 0 0 0 1 delete
15:48:06 3.556320 -76.197323 0 0 0 0 1 delete
15:48:04 3.556352 -76.197373 0 0 0 0 1 delete
15:48:02 3.556373 -76.197403 0 0 0 0 1 delete
15:48:00 3.556397 -76.197427 0 0 0 0 1 delete
15:47:57 3.556430 -76.197442 0 0 0 0 1 delete
15:47:54 3.556455 -76.197460 0 0 0 0 1 delete
15:47:48 3.556487 -76.197442 0 0 0 0 1 delete
15:47:46 3.556530 -76.197435 0 0 0 0 1 delete
15:47:44 3.556585 -76.197447 0 0 0 0 1 delete
15:47:42 3.556628 -76.197442 0 0 0 0 1 delete